AZG7579 UBBB-LTFJ
Flight info
| Callsign | AZG7579 |
|---|---|
| Flight time | 2h 43m |
| Altitude | 38000 |
| Route | RASAM1D RASAM N199 LUSAL N319 ADEKI N644 LAGAS N61 TBN DCT TEMEL DCT ARLAT DCT IPSAT DCT ARSUG DCT ERKOS DCT EMLAD DCT OSDUT DCT TERME DCT CRM DCT HAVZA DCT ORVOR DCT AKEDO DCT ILHAN UT79 UFKAC DCT NAMAN NAMAN1G |
| Aircraft | B77L/H-SDE1E2E3FGHIJ2J3J4J5M1RWXY/LB1D1 |
Departure
| Time | 2025-09-09 14:14 |
|---|---|
| Airport | Heydar Aliyev International Airport (UBBB) |
Arrival
| Time | 2025-09-09 16:57 |
|---|---|
| Airport | Istanbul Sabiha Gökçen International Airport (LTFJ) |
| Time | Latitude | Longitude | Altitude | Speed | Heading |
|---|---|---|---|---|---|
| 2025-09-09 13:47 | 40.45870 | 50.05840 | 2 ft | 0 kts | 54° |
| 2025-09-09 14:10 | 40.45892 | 50.05894 | 2 ft | 12 kts | 79° |
| 2025-09-09 14:10 | 40.45825 | 50.06070 | 1 ft | 10 kts | 138° |
| 2025-09-09 14:11 | 40.45690 | 50.06118 | 0 ft | 10 kts | 157° |
| 2025-09-09 14:11 | 40.45673 | 50.06285 | -1 ft | 9 kts | 61° |
| 2025-09-09 14:12 | 40.45752 | 50.06318 | -1 ft | 0 kts | 360° |
| 2025-09-09 14:12 | 40.46550 | 50.06306 | 9 ft | 121 kts | 359° |
| 2025-09-09 14:13 | 40.48713 | 50.06347 | 537 ft | 166 kts | 4° |
| 2025-09-09 14:13 | 40.51245 | 50.06445 | 1270 ft | 192 kts | 5° |
| 2025-09-09 14:14 | 40.52595 | 50.06499 | 1789 ft | 199 kts | 4° |
| 2025-09-09 14:14 | 40.55616 | 50.06035 | 2104 ft | 245 kts | 337° |
| 2025-09-09 14:15 | 40.59010 | 50.04514 | 3172 ft | 263 kts | 345° |
| 2025-09-09 14:15 | 40.61481 | 50.01154 | 4348 ft | 276 kts | 277° |
| 2025-09-09 14:16 | 40.61519 | 49.96068 | 5744 ft | 279 kts | 270° |
| 2025-09-09 14:16 | 40.61677 | 49.88401 | 7807 ft | 283 kts | 269° |
| 2025-09-09 14:17 | 40.61752 | 49.83142 | 8003 ft | 291 kts | 269° |
| 2025-09-09 14:17 | 40.61787 | 49.80482 | 8009 ft | 290 kts | 269° |
| 2025-09-09 14:18 | 40.61837 | 49.75214 | 8039 ft | 287 kts | 268° |
| 2025-09-09 14:18 | 40.61796 | 49.69933 | 9353 ft | 289 kts | 267° |
| 2025-09-09 14:19 | 40.61746 | 49.64541 | 10399 ft | 307 kts | 267° |
| 2025-09-09 14:19 | 40.61688 | 49.58497 | 10747 ft | 353 kts | 268° |
| 2025-09-09 14:19 | 40.61658 | 49.55179 | 11046 ft | 370 kts | 268° |
| 2025-09-09 14:20 | 40.61535 | 49.41355 | 14193 ft | 382 kts | 268° |
| 2025-09-09 14:21 | 40.61465 | 49.34324 | 15701 ft | 386 kts | 268° |
| 2025-09-09 14:21 | 40.61427 | 49.30783 | 16435 ft | 388 kts | 268° |
| 2025-09-09 14:22 | 40.61308 | 49.20033 | 18536 ft | 395 kts | 268° |
| 2025-09-09 14:22 | 40.61255 | 49.16408 | 19137 ft | 397 kts | 268° |
| 2025-09-09 14:23 | 40.61111 | 49.09156 | 20360 ft | 401 kts | 267° |
| 2025-09-09 14:23 | 40.60953 | 49.01782 | 21532 ft | 406 kts | 267° |
| 2025-09-09 14:24 | 40.60794 | 48.94311 | 22669 ft | 411 kts | 267° |
| 2025-09-09 14:24 | 40.60548 | 48.82935 | 24158 ft | 418 kts | 266° |
| 2025-09-09 14:25 | 40.60374 | 48.75226 | 25015 ft | 424 kts | 266° |
| 2025-09-09 14:27 | 40.59709 | 48.47518 | 28090 ft | 442 kts | 266° |
| 2025-09-09 14:29 | 40.58855 | 48.15146 | 32161 ft | 426 kts | 265° |
| 2025-09-09 14:31 | 40.63676 | 47.85777 | 35247 ft | 441 kts | 300° |
| 2025-09-09 14:33 | 40.78817 | 47.61062 | 37362 ft | 433 kts | 299° |
| 2025-09-09 14:35 | 40.93849 | 47.35923 | 37948 ft | 436 kts | 298° |
| 2025-09-09 14:37 | 41.08679 | 47.10867 | 37964 ft | 433 kts | 298° |
| 2025-09-09 14:39 | 41.23563 | 46.85518 | 37976 ft | 437 kts | 297° |
| 2025-09-09 14:41 | 41.32065 | 46.58536 | 37906 ft | 408 kts | 274° |
| 2025-09-09 14:43 | 41.36050 | 46.29206 | 36489 ft | 399 kts | 274° |
| 2025-09-09 14:45 | 41.40084 | 45.99366 | 35963 ft | 416 kts | 274° |
| 2025-09-09 14:47 | 41.44102 | 45.69073 | 35964 ft | 414 kts | 273° |
| 2025-09-09 14:49 | 41.48036 | 45.38766 | 35961 ft | 415 kts | 273° |
| 2025-09-09 14:51 | 41.50633 | 45.08267 | 35968 ft | 414 kts | 270° |
| 2025-09-09 14:53 | 41.53068 | 44.77642 | 35972 ft | 415 kts | 269° |
| 2025-09-09 14:55 | 41.55418 | 44.47040 | 36032 ft | 415 kts | 269° |
| 2025-09-09 14:57 | 41.56499 | 44.16413 | 36072 ft | 407 kts | 257° |
| 2025-09-09 14:59 | 41.53133 | 43.86533 | 36090 ft | 408 kts | 257° |
| 2025-09-09 15:01 | 41.49726 | 43.56628 | 36088 ft | 410 kts | 256° |
| 2025-09-09 15:03 | 41.46222 | 43.26598 | 36067 ft | 407 kts | 256° |
| 2025-09-09 15:05 | 41.42672 | 42.96843 | 36081 ft | 407 kts | 255° |
| 2025-09-09 15:07 | 41.39078 | 42.67280 | 36090 ft | 404 kts | 255° |
| 2025-09-09 15:09 | 41.35410 | 42.37785 | 36092 ft | 405 kts | 255° |
| 2025-09-09 15:11 | 41.31616 | 42.07893 | 36108 ft | 418 kts | 255° |
| 2025-09-09 15:13 | 41.27202 | 41.74258 | 36051 ft | 413 kts | 254° |
| 2025-09-09 15:15 | 41.23666 | 41.47964 | 36056 ft | 417 kts | 254° |
| 2025-09-09 15:17 | 41.19529 | 41.17785 | 36026 ft | 420 kts | 253° |
| 2025-09-09 15:19 | 41.15259 | 40.87299 | 36009 ft | 420 kts | 253° |
| 2025-09-09 15:21 | 41.10913 | 40.56853 | 35996 ft | 420 kts | 253° |
| 2025-09-09 15:23 | 41.06475 | 40.26372 | 35996 ft | 423 kts | 253° |
| 2025-09-09 15:25 | 41.01918 | 39.95661 | 35996 ft | 428 kts | 253° |
| 2025-09-09 15:27 | 41.00954 | 39.63817 | 36000 ft | 446 kts | 271° |
| 2025-09-09 15:29 | 41.03965 | 39.32522 | 35989 ft | 448 kts | 271° |
| 2025-09-09 15:31 | 41.07002 | 38.99708 | 36009 ft | 451 kts | 271° |
| 2025-09-09 15:33 | 41.10019 | 38.66512 | 35993 ft | 455 kts | 271° |
| 2025-09-09 15:35 | 41.12824 | 38.32969 | 35990 ft | 460 kts | 272° |
| 2025-09-09 15:37 | 41.15890 | 37.94898 | 36000 ft | 464 kts | 272° |
| 2025-09-09 15:39 | 41.18426 | 37.65032 | 36007 ft | 466 kts | 273° |
| 2025-09-09 15:41 | 41.20807 | 37.30777 | 36002 ft | 466 kts | 273° |
| 2025-09-09 15:43 | 41.23448 | 36.96493 | 36006 ft | 468 kts | 274° |
| 2025-09-09 15:45 | 41.26068 | 36.62033 | 36002 ft | 469 kts | 272° |
| 2025-09-09 15:46 | 41.20602 | 36.33175 | 36005 ft | 464 kts | 248° |
| 2025-09-09 15:49 | 41.10433 | 35.96921 | 36017 ft | 467 kts | 249° |
| 2025-09-09 15:50 | 41.02256 | 35.68858 | 36031 ft | 467 kts | 248° |
| 2025-09-09 15:53 | 40.90732 | 35.28619 | 36017 ft | 469 kts | 249° |
| 2025-09-09 15:55 | 40.82669 | 35.00364 | 36011 ft | 470 kts | 249° |
| 2025-09-09 15:57 | 40.73351 | 34.68124 | 35996 ft | 471 kts | 249° |
| 2025-09-09 15:59 | 40.63916 | 34.35881 | 36005 ft | 471 kts | 250° |
| 2025-09-09 16:01 | 40.53197 | 33.99722 | 36018 ft | 472 kts | 250° |
| 2025-09-09 16:03 | 40.45382 | 33.71478 | 36035 ft | 467 kts | 266° |
| 2025-09-09 16:05 | 40.51072 | 33.34171 | 36067 ft | 466 kts | 285° |
| 2025-09-09 16:07 | 40.56316 | 33.05189 | 36089 ft | 464 kts | 285° |
| 2025-09-09 16:09 | 40.62906 | 32.68157 | 36096 ft | 461 kts | 286° |
| 2025-09-09 16:11 | 40.67928 | 32.39429 | 36102 ft | 459 kts | 286° |
| 2025-09-09 16:13 | 40.75446 | 32.03071 | 36107 ft | 456 kts | 291° |
| 2025-09-09 16:15 | 40.82045 | 31.76592 | 36098 ft | 456 kts | 291° |
| 2025-09-09 16:17 | 40.90835 | 31.40704 | 36079 ft | 456 kts | 290° |
| 2025-09-09 16:19 | 40.97113 | 31.12494 | 36062 ft | 460 kts | 288° |
| 2025-09-09 16:21 | 41.04951 | 30.75630 | 36036 ft | 464 kts | 287° |
| 2025-09-09 16:23 | 41.13141 | 30.47930 | 35460 ft | 455 kts | 294° |
| 2025-09-09 16:25 | 41.22625 | 30.12882 | 27664 ft | 416 kts | 277° |
| 2025-09-09 16:27 | 41.21502 | 29.87953 | 24491 ft | 398 kts | 232° |
| 2025-09-09 16:27 | 41.17601 | 29.82610 | 23661 ft | 405 kts | 228° |
| 2025-09-09 16:28 | 41.13700 | 29.77275 | 22743 ft | 400 kts | 229° |
| 2025-09-09 16:28 | 41.08020 | 29.69352 | 21479 ft | 390 kts | 229° |
| 2025-09-09 16:29 | 41.04308 | 29.64187 | 20687 ft | 384 kts | 229° |
| 2025-09-09 16:29 | 41.02474 | 29.61639 | 20288 ft | 381 kts | 229° |
| 2025-09-09 16:30 | 40.98842 | 29.56599 | 19510 ft | 376 kts | 229° |
| 2025-09-09 16:30 | 40.95018 | 29.52053 | 18764 ft | 365 kts | 208° |
| 2025-09-09 16:31 | 40.90182 | 29.50947 | 17987 ft | 353 kts | 181° |
| 2025-09-09 16:31 | 40.85305 | 29.51065 | 17204 ft | 348 kts | 180° |
| 2025-09-09 16:32 | 40.80509 | 29.51146 | 16482 ft | 341 kts | 181° |
| 2025-09-09 16:32 | 40.73508 | 29.51196 | 15447 ft | 332 kts | 181° |
| 2025-09-09 16:33 | 40.71204 | 29.51211 | 15099 ft | 330 kts | 181° |
| 2025-09-09 16:33 | 40.66656 | 29.51242 | 14428 ft | 324 kts | 181° |
| 2025-09-09 16:34 | 40.62176 | 29.51273 | 13745 ft | 319 kts | 181° |
| 2025-09-09 16:34 | 40.57768 | 29.51302 | 13048 ft | 313 kts | 181° |
| 2025-09-09 16:35 | 40.53733 | 29.49781 | 12413 ft | 306 kts | 209° |
| 2025-09-09 16:35 | 40.51809 | 29.48487 | 12078 ft | 313 kts | 208° |
| 2025-09-09 16:36 | 40.45985 | 29.44715 | 11072 ft | 307 kts | 207° |
| 2025-09-09 16:36 | 40.41017 | 29.40113 | 10136 ft | 283 kts | 248° |
| 2025-09-09 16:37 | 40.40406 | 29.35159 | 9564 ft | 277 kts | 272° |
| 2025-09-09 16:37 | 40.40403 | 29.32643 | 9259 ft | 281 kts | 272° |
| 2025-09-09 16:38 | 40.40372 | 29.27552 | 8651 ft | 276 kts | 271° |
| 2025-09-09 16:38 | 40.40333 | 29.22589 | 8071 ft | 265 kts | 277° |
| 2025-09-09 16:39 | 40.41735 | 29.18455 | 8018 ft | 251 kts | 304° |
| 2025-09-09 16:39 | 40.43621 | 29.14391 | 8000 ft | 264 kts | 303° |
| 2025-09-09 16:40 | 40.44544 | 29.09870 | 7986 ft | 262 kts | 265° |
| 2025-09-09 16:40 | 40.43963 | 29.02552 | 7993 ft | 272 kts | 266° |
| 2025-09-09 16:41 | 40.43843 | 28.97696 | 7986 ft | 261 kts | 282° |
| 2025-09-09 16:41 | 40.44628 | 28.93008 | 7993 ft | 266 kts | 284° |
| 2025-09-09 16:42 | 40.45018 | 28.90624 | 7990 ft | 269 kts | 284° |
| 2025-09-09 16:42 | 40.45877 | 28.85880 | 7966 ft | 261 kts | 297° |
| 2025-09-09 16:43 | 40.47605 | 28.81721 | 7993 ft | 261 kts | 302° |
| 2025-09-09 16:43 | 40.49361 | 28.77554 | 7989 ft | 264 kts | 301° |
| 2025-09-09 16:44 | 40.51399 | 28.73645 | 7996 ft | 256 kts | 318° |
| 2025-09-09 16:44 | 40.55255 | 28.68795 | 7980 ft | 256 kts | 318° |
| 2025-09-09 16:45 | 40.57859 | 28.65658 | 7971 ft | 249 kts | 331° |
| 2025-09-09 16:45 | 40.59367 | 28.64576 | 7982 ft | 246 kts | 335° |
| 2025-09-09 16:46 | 40.62423 | 28.62547 | 7979 ft | 244 kts | 337° |
| 2025-09-09 16:46 | 40.65694 | 28.62607 | 7993 ft | 252 kts | 29° |
| 2025-09-09 16:47 | 40.67778 | 28.66338 | 7550 ft | 258 kts | 70° |
| 2025-09-09 16:47 | 40.68898 | 28.70710 | 7143 ft | 247 kts | 69° |
| 2025-09-09 16:48 | 40.70006 | 28.74918 | 6762 ft | 239 kts | 69° |
| 2025-09-09 16:48 | 40.71646 | 28.81111 | 6216 ft | 243 kts | 69° |
| 2025-09-09 16:49 | 40.72205 | 28.83221 | 6012 ft | 245 kts | 69° |
| 2025-09-09 16:49 | 40.73335 | 28.87489 | 5623 ft | 248 kts | 69° |
| 2025-09-09 16:50 | 40.74462 | 28.91754 | 5179 ft | 244 kts | 69° |
| 2025-09-09 16:50 | 40.75554 | 28.95897 | 4740 ft | 236 kts | 69° |
| 2025-09-09 16:51 | 40.76616 | 28.99928 | 4288 ft | 226 kts | 69° |
| 2025-09-09 16:51 | 40.78038 | 29.03345 | 3946 ft | 206 kts | 50° |
| 2025-09-09 16:52 | 40.79886 | 29.06369 | 3544 ft | 214 kts | 50° |
| 2025-09-09 16:52 | 40.82444 | 29.10876 | 3087 ft | 196 kts | 58° |
| 2025-09-09 16:53 | 40.83654 | 29.14065 | 3025 ft | 190 kts | 62° |
| 2025-09-09 16:53 | 40.84215 | 29.15596 | 2988 ft | 182 kts | 61° |
| 2025-09-09 16:54 | 40.85309 | 29.18569 | 2370 ft | 170 kts | 60° |
| 2025-09-09 16:54 | 40.86244 | 29.21109 | 1907 ft | 144 kts | 60° |
| 2025-09-09 16:55 | 40.87130 | 29.23511 | 1483 ft | 146 kts | 60° |
| 2025-09-09 16:55 | 40.88008 | 29.25897 | 1042 ft | 144 kts | 62° |
| 2025-09-09 16:56 | 40.88890 | 29.28337 | 516 ft | 143 kts | 62° |
| 2025-09-09 16:56 | 40.89945 | 29.31165 | 313 ft | 50 kts | 64° |
| 2025-09-09 16:57 | 40.90202 | 29.31864 | 316 ft | 36 kts | 65° |
| 2025-09-09 16:57 | 40.90304 | 29.32144 | 316 ft | 32 kts | 63° |
| 2025-09-09 16:58 | 40.90453 | 29.32467 | 317 ft | 14 kts | 21° |
| 2025-09-09 16:58 | 40.90579 | 29.32352 | 317 ft | 13 kts | 271° |
| 2025-09-09 16:59 | 40.90503 | 29.32112 | 318 ft | 20 kts | 244° |
| 2025-09-09 16:59 | 40.90359 | 29.31720 | 318 ft | 20 kts | 244° |
| 2025-09-09 17:00 | 40.90316 | 29.31515 | 316 ft | 11 kts | 305° |
| 2025-09-09 17:00 | 40.90370 | 29.31460 | 315 ft | 9 kts | 319° |
| 2025-09-09 17:01 | 40.90368 | 29.31156 | 317 ft | 9 kts | 309° |
| 2025-09-09 17:01 | 40.90394 | 29.31118 | 315 ft | 6 kts | 319° |
| 2025-09-09 17:02 | 40.90408 | 29.31105 | 315 ft | 0 kts | 329° |